createdAt,value
2018-10-18T00:00:41.627Z,101564.34
2018-10-18T00:03:11.874Z,101568.05
2018-10-18T00:05:41.946Z,101571.28
2018-10-18T00:08:12.107Z,101567.30
2018-10-18T00:10:42.347Z,101560.62
2018-10-18T00:13:12.614Z,101564.33
2018-10-18T00:15:42.792Z,101569.05
2018-10-18T00:18:13.521Z,101570.64
2018-10-18T00:20:43.626Z,101574.94
2018-10-18T00:23:13.808Z,101579.38
2018-10-18T00:25:43.988Z,101573.37
2018-10-18T00:28:14.177Z,101581.19
2018-10-18T00:30:44.437Z,101578.67
2018-10-18T00:33:14.625Z,101583.23
2018-10-18T00:35:45.844Z,101584.50
2018-10-18T00:38:16.083Z,101581.41
2018-10-18T00:40:46.182Z,101585.15
2018-10-18T00:43:16.367Z,101576.53
2018-10-18T00:45:46.572Z,101582.50
2018-10-18T00:48:16.771Z,101583.60
2018-10-18T00:50:47.678Z,101587.05
2018-10-18T00:53:17.837Z,101585.67
2018-10-18T00:55:48.023Z,101587.91
2018-10-18T00:58:18.231Z,101592.69
2018-10-18T01:00:48.515Z,101597.41
2018-10-18T01:03:18.645Z,101596.67
2018-10-18T01:05:48.834Z,101601.59
2018-10-18T01:08:18.952Z,101599.73
2018-10-18T01:10:49.174Z,101599.18
2018-10-18T01:13:19.373Z,101606.36
2018-10-18T01:15:49.711Z,101605.70
2018-10-18T01:18:19.880Z,101610.45
2018-10-18T01:20:50.088Z,101604.90
2018-10-18T01:23:20.283Z,101610.81
2018-10-18T01:25:50.639Z,101609.87
2018-10-18T01:28:20.849Z,101606.00
2018-10-18T01:30:51.729Z,101606.37
2018-10-18T01:33:21.899Z,101611.15
2018-10-18T01:35:53.631Z,101609.15
2018-10-18T01:38:23.769Z,101611.98
2018-10-18T01:40:54.029Z,101615.30
2018-10-18T01:43:24.209Z,101607.25
2018-10-18T01:45:54.472Z,101610.28
2018-10-18T01:48:24.767Z,101611.61
2018-10-18T01:50:54.995Z,101614.50
2018-10-18T01:53:25.300Z,101614.45
2018-10-18T01:55:55.636Z,101610.64
2018-10-18T01:58:25.986Z,101612.45
2018-10-18T02:00:56.203Z,101620.95
2018-10-18T02:03:26.406Z,101613.36
2018-10-18T02:05:56.788Z,101609.74
2018-10-18T02:08:27.608Z,101619.36
2018-10-18T02:10:58.020Z,101618.40
2018-10-18T02:13:28.176Z,101623.91
2018-10-18T02:15:58.441Z,101626.47
2018-10-18T02:18:28.711Z,101621.67
2018-10-18T02:20:59.057Z,101627.36
2018-10-18T02:23:29.246Z,101623.73
2018-10-18T02:25:59.640Z,101624.59
2018-10-18T02:28:29.994Z,101627.98
2018-10-18T02:31:00.663Z,101627.36
2018-10-18T02:33:37.326Z,101621.14
2018-10-18T02:36:07.737Z,101622.09
2018-10-18T02:38:37.885Z,101628.98
2018-10-18T02:41:08.195Z,101633.88
2018-10-18T02:43:38.309Z,101628.80
2018-10-18T02:46:08.497Z,101625.44
2018-10-18T02:48:38.639Z,101626.26
2018-10-18T02:51:09.002Z,101619.94
2018-10-18T02:53:39.124Z,101625.78
2018-10-18T02:56:09.345Z,101623.34
2018-10-18T02:58:39.655Z,101627.97
2018-10-18T03:01:09.839Z,101624.45
2018-10-18T03:03:40.235Z,101625.46
2018-10-18T03:06:10.506Z,101629.98
2018-10-18T03:08:40.638Z,101630.78
2018-10-18T03:11:10.833Z,101629.61
2018-10-18T03:13:41.009Z,101637.83
2018-10-18T03:16:11.323Z,101640.92
2018-10-18T03:18:41.406Z,101640.55
2018-10-18T03:21:11.565Z,101639.59
2018-10-18T03:23:41.663Z,101640.07
2018-10-18T03:26:11.915Z,101637.27
2018-10-18T03:28:42.004Z,101643.89
2018-10-18T03:31:12.133Z,101637.10
2018-10-18T03:33:42.340Z,101640.78
2018-10-18T03:36:12.627Z,101645.45
2018-10-18T03:38:42.755Z,101645.45
2018-10-18T03:41:12.999Z,101652.89
2018-10-18T03:43:43.145Z,101650.97
2018-10-18T03:46:13.364Z,101656.83
2018-10-18T03:48:43.496Z,101655.39
2018-10-18T03:51:13.710Z,101659.80
2018-10-18T03:53:43.784Z,101655.59
2018-10-18T03:56:14.025Z,101654.69
2018-10-18T03:58:44.175Z,101654.00
2018-10-18T04:01:14.413Z,101661.27
2018-10-18T04:03:44.507Z,101663.77
2018-10-18T04:06:15.624Z,101671.29
2018-10-18T04:08:45.775Z,101669.74
2018-10-18T04:11:16.026Z,101674.68
2018-10-18T04:13:46.356Z,101673.20
2018-10-18T04:16:16.518Z,101674.02
2018-10-18T04:18:46.760Z,101672.08
2018-10-18T04:21:17.176Z,101670.05
2018-10-18T04:23:47.333Z,101669.95
2018-10-18T04:26:17.516Z,101668.78
2018-10-18T04:28:47.696Z,101666.02
2018-10-18T04:31:17.891Z,101666.70
2018-10-18T04:33:48.065Z,101672.88
2018-10-18T04:36:18.458Z,101663.87
2018-10-18T04:38:48.437Z,101673.98
2018-10-18T04:41:18.591Z,101679.52
2018-10-18T04:43:48.761Z,101673.34
2018-10-18T04:46:18.918Z,101668.41
2018-10-18T04:48:49.140Z,101671.96
2018-10-18T04:51:19.244Z,101675.64
2018-10-18T04:53:49.321Z,101676.75
2018-10-18T04:56:19.464Z,101678.39
2018-10-18T04:58:49.659Z,101676.64
2018-10-18T05:01:19.845Z,101683.17
2018-10-18T05:03:50.070Z,101684.39
2018-10-18T05:06:20.213Z,101685.41
2018-10-18T05:08:50.354Z,101686.73
2018-10-18T05:11:20.508Z,101687.53
2018-10-18T05:13:50.618Z,101682.80
2018-10-18T05:16:20.865Z,101684.62
2018-10-18T05:18:51.022Z,101693.80
2018-10-18T05:21:21.100Z,101700.02
2018-10-18T05:23:51.213Z,101703.17
2018-10-18T05:26:21.375Z,101693.11
2018-10-18T05:28:51.585Z,101696.53
2018-10-18T05:31:24.802Z,101694.65
2018-10-18T05:33:54.936Z,101694.80
2018-10-18T05:36:25.078Z,101695.45
2018-10-18T05:38:55.223Z,101698.47
2018-10-18T05:41:25.412Z,101700.63
2018-10-18T05:43:55.638Z,101693.45
2018-10-18T05:46:25.895Z,101693.27
2018-10-18T05:48:56.146Z,101698.02
2018-10-18T05:51:26.342Z,101701.47
2018-10-18T05:53:56.660Z,101700.77
2018-10-18T05:56:26.743Z,101708.13
2018-10-18T05:58:56.875Z,101712.05
2018-10-18T06:01:27.016Z,101712.63
2018-10-18T06:03:57.202Z,101720.59
2018-10-18T06:06:27.384Z,101716.42
2018-10-18T06:08:57.535Z,101714.09
2018-10-18T06:11:29.377Z,101713.16
2018-10-18T06:13:59.511Z,101717.22
2018-10-18T06:16:29.934Z,101715.42
2018-10-18T06:19:00.163Z,101713.91
2018-10-18T06:21:30.326Z,101715.09
2018-10-18T06:24:00.410Z,101718.45
2018-10-18T06:26:30.548Z,101725.37
2018-10-18T06:29:00.720Z,101738.19
2018-10-18T06:31:30.779Z,101738.37
2018-10-18T06:34:00.881Z,101743.80
2018-10-18T06:36:31.085Z,101745.52
2018-10-18T06:39:01.348Z,101744.87
2018-10-18T06:41:31.509Z,101744.52
2018-10-18T06:44:01.628Z,101746.25
2018-10-18T06:46:31.909Z,101744.92
2018-10-18T06:49:02.256Z,101753.64
2018-10-18T06:51:32.594Z,101749.98
2018-10-18T06:54:02.730Z,101752.98
2018-10-18T06:56:32.941Z,101754.81
2018-10-18T06:59:03.136Z,101755.82
2018-10-18T07:01:33.296Z,101762.08
2018-10-18T07:04:03.432Z,101762.84
2018-10-18T07:06:33.567Z,101760.09
2018-10-18T07:09:03.921Z,101767.31
2018-10-18T07:11:34.075Z,101768.48
2018-10-18T07:14:04.309Z,101768.22
2018-10-18T07:16:34.433Z,101775.61
2018-10-18T07:19:04.759Z,101780.12
2018-10-18T07:21:35.088Z,101776.02
2018-10-18T07:24:05.624Z,101776.48
2018-10-18T07:26:35.778Z,101776.60
2018-10-18T07:29:06.061Z,101779.59
2018-10-18T07:31:36.257Z,101780.27
2018-10-18T07:34:06.798Z,101783.01
2018-10-18T07:36:36.915Z,101783.59
2018-10-18T07:39:13.104Z,101790.91
2018-10-18T07:41:43.982Z,101794.30
2018-10-18T07:44:14.101Z,101792.58
2018-10-18T07:46:44.294Z,101794.30
2018-10-18T07:49:14.470Z,101796.57
2018-10-18T07:51:44.562Z,101794.91
2018-10-18T07:54:14.796Z,101796.05
2018-10-18T07:56:44.911Z,101796.90
2018-10-18T07:59:15.108Z,101804.59
2018-10-18T08:01:45.358Z,101805.34
2018-10-18T08:04:15.513Z,101803.59
2018-10-18T08:06:45.729Z,101806.59
2018-10-18T08:09:15.850Z,101811.24
2018-10-18T08:11:46.126Z,101813.91
2018-10-18T08:14:16.251Z,101813.90
2018-10-18T08:16:46.507Z,101813.77
2018-10-18T08:19:17.068Z,101812.66
2018-10-18T08:21:47.207Z,101810.38
2018-10-18T08:24:17.499Z,101807.05
2018-10-18T08:26:47.661Z,101809.10
2018-10-18T08:29:18.149Z,101803.34
2018-10-18T08:31:48.478Z,101799.31
2018-10-18T08:34:18.842Z,101798.05
2018-10-18T08:36:49.027Z,101801.83
2018-10-18T08:39:19.311Z,101795.51
2018-10-18T08:41:49.489Z,101805.09
2018-10-18T08:44:19.761Z,101799.37
2018-10-18T08:46:49.830Z,101807.80
2018-10-18T08:49:19.980Z,101813.23
2018-10-18T08:51:50.105Z,101822.12
2018-10-18T08:54:20.229Z,101818.80
2018-10-18T08:56:50.374Z,101825.57
2018-10-18T08:59:20.493Z,101828.45
2018-10-18T09:01:50.682Z,101830.27
2018-10-18T09:04:20.914Z,101831.42
2018-10-18T09:06:51.076Z,101825.55
2018-10-18T09:09:21.171Z,101824.89
2018-10-18T09:11:51.365Z,101831.61
2018-10-18T09:14:21.684Z,101832.26
2018-10-18T09:16:51.817Z,101832.39
2018-10-18T09:19:21.963Z,101830.41
2018-10-18T09:21:52.127Z,101834.47
2018-10-18T09:24:22.264Z,101825.27
2018-10-18T09:26:52.383Z,101835.56
2018-10-18T09:29:22.534Z,101830.37
2018-10-18T09:31:52.673Z,101833.75
2018-10-18T09:34:22.753Z,101832.91
2018-10-18T09:36:52.881Z,101832.73
2018-10-18T09:39:23.132Z,101823.97
2018-10-18T09:41:53.218Z,101826.11
2018-10-18T09:44:23.316Z,101825.23
2018-10-18T09:46:53.474Z,101823.30
2018-10-18T09:49:23.593Z,101829.07
2018-10-18T09:51:53.673Z,101825.15
2018-10-18T09:54:23.874Z,101826.78
2018-10-18T09:56:54.096Z,101832.84
2018-10-18T09:59:24.277Z,101829.03
2018-10-18T10:01:59.379Z,101832.84
2018-10-18T10:04:29.458Z,101839.45
2018-10-18T10:06:59.718Z,101829.91
2018-10-18T10:09:29.875Z,101838.00
2018-10-18T10:12:00.057Z,101831.13
2018-10-18T10:14:48.456Z,101838.27
2018-10-18T10:17:19.528Z,101844.58
2018-10-18T10:19:49.702Z,101838.21
2018-10-18T10:22:26.595Z,101845.83
2018-10-18T10:24:59.165Z,101844.95
2018-10-18T10:27:30.191Z,101850.11
2018-10-18T10:30:00.561Z,101854.22
2018-10-18T10:32:31.254Z,101853.15
2018-10-18T10:35:01.721Z,101847.88
2018-10-18T10:37:31.888Z,101848.88
2018-10-18T10:40:02.012Z,101846.09
2018-10-18T10:42:32.143Z,101843.03
2018-10-18T10:45:02.467Z,101846.31
2018-10-18T10:47:32.664Z,101844.13
2018-10-18T10:50:02.863Z,101838.46
2018-10-18T10:52:33.355Z,101835.52
2018-10-18T10:55:03.552Z,101828.53
2018-10-18T10:57:33.704Z,101827.78
2018-10-18T11:00:04.042Z,101822.67
2018-10-18T11:02:34.144Z,101823.03
2018-10-18T11:05:04.309Z,101820.92
2018-10-18T11:07:34.524Z,101832.01
2018-10-18T11:10:04.782Z,101820.70
2018-10-18T11:12:34.963Z,101830.42
2018-10-18T11:15:05.455Z,101820.23
2018-10-18T11:17:35.484Z,101811.94
2018-10-18T11:20:05.698Z,101814.94
2018-10-18T11:22:35.737Z,101809.52
2018-10-18T11:25:06.508Z,101808.28
2018-10-18T11:27:36.633Z,101812.38
2018-10-18T11:30:06.821Z,101802.08
2018-10-18T11:32:36.960Z,101802.84
2018-10-18T11:35:07.292Z,101805.88
2018-10-18T11:37:37.422Z,101809.67
2018-10-18T11:40:08.259Z,101814.79
2018-10-18T11:42:41.273Z,101814.44
2018-10-18T11:45:11.328Z,101821.00
2018-10-18T11:47:41.474Z,101811.99
2018-10-18T11:50:11.640Z,101813.03
2018-10-18T11:52:41.686Z,101817.44
2018-10-18T11:55:11.839Z,101813.93
2018-10-18T11:57:41.882Z,101813.16
2018-10-18T12:00:16.001Z,101821.08
2018-10-18T12:02:46.954Z,101807.20
2018-10-18T12:05:17.157Z,101817.02
2018-10-18T12:07:47.280Z,101813.88
2018-10-18T12:10:17.526Z,101818.62
2018-10-18T12:12:47.661Z,101814.17
2018-10-18T12:15:17.741Z,101817.07
2018-10-18T12:17:47.905Z,101818.22
2018-10-18T12:20:18.764Z,101818.99
2018-10-18T12:22:48.807Z,101824.08
2018-10-18T12:25:19.069Z,101820.73
2018-10-18T12:27:49.276Z,101815.64
2018-10-18T12:30:19.325Z,101825.98
2018-10-18T12:33:06.560Z,101821.41
2018-10-18T12:35:37.983Z,101820.31
2018-10-18T12:38:08.643Z,101825.08
2018-10-18T12:40:38.930Z,101828.41
2018-10-18T12:43:09.028Z,101828.00
2018-10-18T12:45:39.221Z,101826.92
2018-10-18T12:48:09.393Z,101825.57
2018-10-18T12:50:39.458Z,101826.74
2018-10-18T12:53:09.894Z,101826.78
2018-10-18T12:55:40.058Z,101835.33
2018-10-18T12:58:10.217Z,101824.25
2018-10-18T13:00:40.366Z,101826.41
2018-10-18T13:03:10.547Z,101823.34
2018-10-18T13:05:40.695Z,101827.42
2018-10-18T13:08:10.886Z,101830.80
2018-10-18T13:10:40.976Z,101829.48
2018-10-18T13:13:11.137Z,101837.79
2018-10-18T13:15:41.325Z,101827.47
2018-10-18T13:18:11.469Z,101831.85
2018-10-18T13:20:41.631Z,101829.97
2018-10-18T13:23:11.818Z,101832.38
2018-10-18T13:25:41.899Z,101836.91
2018-10-18T13:28:11.982Z,101827.08
2018-10-18T13:30:42.047Z,101822.34
2018-10-18T13:33:12.242Z,101820.14
2018-10-18T13:35:42.359Z,101823.30
2018-10-18T13:38:12.429Z,101819.73
2018-10-18T13:40:45.210Z,101812.36
2018-10-18T13:43:15.372Z,101822.08
2018-10-18T13:45:45.462Z,101819.84
2018-10-18T13:48:15.546Z,101819.25
2018-10-18T13:50:45.610Z,101817.75
2018-10-18T13:53:15.793Z,101819.07
2018-10-18T13:55:45.911Z,101818.62
2018-10-18T13:58:16.081Z,101820.05
2018-10-18T14:00:46.242Z,101808.64
2018-10-18T14:03:21.813Z,101817.98
2018-10-18T14:05:52.010Z,101809.33
2018-10-18T14:08:22.252Z,101809.42
2018-10-18T14:10:52.402Z,101815.30
2018-10-18T14:13:22.547Z,101811.03
2018-10-18T14:15:52.700Z,101809.63
2018-10-18T14:18:22.870Z,101820.79
2018-10-18T14:20:53.005Z,101818.05
2018-10-18T14:23:23.213Z,101819.72
2018-10-18T14:25:54.907Z,101814.38
2018-10-18T14:28:25.025Z,101817.55
2018-10-18T14:30:55.307Z,101824.55
2018-10-18T14:33:25.291Z,101818.00
2018-10-18T14:35:55.380Z,101821.09
2018-10-18T14:38:25.643Z,101819.13
2018-10-18T14:40:55.858Z,101822.88
2018-10-18T14:43:26.052Z,101823.48
2018-10-18T14:45:56.190Z,101828.92
2018-10-18T14:48:26.312Z,101827.63
2018-10-18T14:50:56.654Z,101834.09
2018-10-18T14:53:26.838Z,101824.41
2018-10-18T14:55:57.009Z,101823.61
2018-10-18T14:58:27.206Z,101825.19
2018-10-18T15:00:57.330Z,101819.18
2018-10-18T15:03:27.475Z,101826.45
2018-10-18T15:05:57.709Z,101827.34
2018-10-18T15:08:28.032Z,101818.57
2018-10-18T15:10:58.132Z,101829.09
2018-10-18T15:13:28.402Z,101822.70
2018-10-18T15:15:58.865Z,101823.18
2018-10-18T15:18:28.985Z,101825.51
2018-10-18T15:20:59.070Z,101820.36
2018-10-18T15:23:29.227Z,101823.98
2018-10-18T15:25:59.541Z,101823.95
2018-10-18T15:28:29.694Z,101827.41
2018-10-18T15:30:59.935Z,101822.34
2018-10-18T15:33:30.056Z,101824.69
2018-10-18T15:36:00.233Z,101823.80
2018-10-18T15:38:30.467Z,101828.55
2018-10-18T15:41:00.693Z,101830.80
2018-10-18T15:43:30.831Z,101824.09
2018-10-18T15:46:00.922Z,101831.08
2018-10-18T15:48:31.123Z,101825.83
2018-10-18T15:51:01.374Z,101834.41
2018-10-18T15:53:31.744Z,101840.20
2018-10-18T15:56:01.931Z,101835.41
2018-10-18T15:58:32.420Z,101838.73
2018-10-18T16:01:02.585Z,101836.26
2018-10-18T16:03:32.667Z,101845.43
2018-10-18T16:06:02.756Z,101847.90
2018-10-18T16:08:33.026Z,101855.58
2018-10-18T16:11:03.135Z,101863.91
2018-10-18T16:13:33.739Z,101853.09
2018-10-18T16:16:03.851Z,101852.80
2018-10-18T16:18:34.137Z,101861.41
2018-10-18T16:21:04.841Z,101866.73
2018-10-18T16:23:35.408Z,101866.34
2018-10-18T16:26:06.475Z,101862.39
2018-10-18T16:28:36.926Z,101864.03
2018-10-18T16:31:07.269Z,101869.52
2018-10-18T16:33:37.578Z,101866.86
2018-10-18T16:36:07.747Z,101873.16
2018-10-18T16:38:37.967Z,101872.62
2018-10-18T16:41:08.314Z,101869.47
2018-10-18T16:43:38.352Z,101871.52
2018-10-18T16:46:08.560Z,101877.09
2018-10-18T16:48:38.814Z,101874.88
2018-10-18T16:51:09.009Z,101875.69
2018-10-18T16:53:39.292Z,101878.47
2018-10-18T16:56:09.673Z,101874.13
2018-10-18T16:58:39.762Z,101875.30
2018-10-18T17:01:09.833Z,101882.32
2018-10-18T17:03:47.091Z,101886.91
2018-10-18T17:06:17.486Z,101884.59
2018-10-18T17:08:47.673Z,101877.44
2018-10-18T17:11:17.902Z,101874.33
2018-10-18T17:13:48.105Z,101882.09
2018-10-18T17:16:18.622Z,101885.58
2018-10-18T17:18:48.748Z,101887.91
2018-10-18T17:21:18.973Z,101884.81
2018-10-18T17:23:49.053Z,101890.67
2018-10-18T17:26:19.355Z,101890.20
2018-10-18T17:28:49.480Z,101890.27
2018-10-18T17:31:19.511Z,101896.10
2018-10-18T17:33:49.715Z,101897.85
2018-10-18T17:36:19.934Z,101902.15
2018-10-18T17:38:50.014Z,101904.23
2018-10-18T17:41:20.218Z,101907.43
2018-10-18T17:43:50.417Z,101900.38
2018-10-18T17:46:20.580Z,101901.34
2018-10-18T17:48:50.830Z,101901.28
2018-10-18T17:51:20.997Z,101905.66
2018-10-18T17:53:51.117Z,101910.58
2018-10-18T17:56:21.519Z,101916.31
2018-10-18T17:58:51.591Z,101917.20
2018-10-18T18:01:21.663Z,101913.45
2018-10-18T18:03:51.816Z,101919.23
2018-10-18T18:06:22.225Z,101914.09
2018-10-18T18:08:52.352Z,101921.41
2018-10-18T18:11:22.444Z,101919.79
2018-10-18T18:13:52.865Z,101916.62
2018-10-18T18:16:23.000Z,101919.74
2018-10-18T18:18:53.193Z,101918.08
2018-10-18T18:21:23.380Z,101916.62
2018-10-18T18:23:53.518Z,101916.96
2018-10-18T18:26:32.485Z,101919.27
2018-10-18T18:28:54.060Z,101913.06
2018-10-18T18:31:24.307Z,101918.80
2018-10-18T18:33:54.775Z,101922.18
2018-10-18T18:36:24.984Z,101925.22
2018-10-18T18:38:55.159Z,101929.63
2018-10-18T18:41:25.319Z,101931.34
2018-10-18T18:43:55.620Z,101931.85
2018-10-18T18:46:25.724Z,101936.25
2018-10-18T18:48:55.984Z,101937.92
2018-10-18T18:51:26.260Z,101935.96
2018-10-18T18:53:56.358Z,101938.27
2018-10-18T18:56:26.585Z,101945.54
2018-10-18T18:58:56.803Z,101946.27
2018-10-18T19:01:27.150Z,101946.73
2018-10-18T19:03:57.255Z,101952.86
2018-10-18T19:06:27.374Z,101960.13
2018-10-18T19:08:57.554Z,101955.43
2018-10-18T19:11:28.106Z,101959.95
2018-10-18T19:13:58.358Z,101963.14
2018-10-18T19:16:28.582Z,101959.63
2018-10-18T19:18:58.717Z,101965.69
2018-10-18T19:21:28.915Z,101963.81
2018-10-18T19:23:59.050Z,101971.08
2018-10-18T19:26:29.636Z,101974.38
2018-10-18T19:28:59.932Z,101964.41
2018-10-18T19:31:30.045Z,101970.99
2018-10-18T19:34:00.133Z,101975.02
2018-10-18T19:36:30.231Z,101978.52
2018-10-18T19:39:00.367Z,101981.99
2018-10-18T19:41:31.008Z,101976.59
2018-10-18T19:44:01.161Z,101976.81
2018-10-18T19:46:32.114Z,101973.51
2018-10-18T19:49:02.473Z,101979.40
2018-10-18T19:51:32.601Z,101972.81
2018-10-18T19:54:02.702Z,101983.58
2018-10-18T19:56:32.992Z,101982.77
2018-10-18T19:59:03.064Z,101990.14
2018-10-18T20:01:33.168Z,101993.67
2018-10-18T20:04:03.308Z,101994.59
2018-10-18T20:06:33.407Z,101994.62
2018-10-18T20:09:03.716Z,101992.79
2018-10-18T20:11:33.894Z,101994.94
2018-10-18T20:14:04.041Z,101996.69
2018-10-18T20:16:34.199Z,101993.45
2018-10-18T20:19:04.608Z,101999.54
2018-10-18T20:21:34.764Z,102000.36
2018-10-18T20:24:05.268Z,101987.81
2018-10-18T20:26:35.386Z,101993.62
2018-10-18T20:29:05.648Z,101990.46
2018-10-18T20:31:36.175Z,101996.46
2018-10-18T20:34:06.956Z,101997.52
2018-10-18T20:36:37.351Z,101987.77
2018-10-18T20:39:10.801Z,101996.42
2018-10-18T20:41:40.903Z,101996.11
2018-10-18T20:44:11.083Z,101988.86
2018-10-18T20:46:41.250Z,101991.90
2018-10-18T20:49:11.347Z,101998.92
2018-10-18T20:51:41.469Z,101991.44
2018-10-18T20:54:11.648Z,101989.56
2018-10-18T20:56:41.743Z,101993.02
2018-10-18T20:59:11.871Z,101996.46
2018-10-18T21:01:41.982Z,101990.11
2018-10-18T21:04:12.070Z,101990.38
2018-10-18T21:06:42.464Z,101989.87
2018-10-18T21:09:12.764Z,101992.41
2018-10-18T21:11:42.872Z,101988.78
2018-10-18T21:14:12.974Z,101990.50
2018-10-18T21:16:43.008Z,101984.06
2018-10-18T21:19:13.112Z,101988.08
2018-10-18T21:21:43.280Z,101988.70
2018-10-18T21:24:13.413Z,101984.77
2018-10-18T21:26:43.619Z,101986.21
2018-10-18T21:29:13.803Z,101983.76
2018-10-18T21:31:43.977Z,101985.70
2018-10-18T21:34:14.159Z,101983.87
2018-10-18T21:36:44.274Z,101986.91
2018-10-18T21:39:18.842Z,101982.04
2018-10-18T21:41:48.987Z,101978.96
2018-10-18T21:44:19.211Z,101978.11
2018-10-18T21:46:49.343Z,101975.11
2018-10-18T21:49:19.881Z,101973.31
2018-10-18T21:51:49.945Z,101979.43
2018-10-18T21:54:20.174Z,101983.87
2018-10-18T21:56:50.426Z,101981.64
2018-10-18T21:59:20.733Z,101977.09
2018-10-18T22:01:50.870Z,101977.67
2018-10-18T22:04:21.049Z,101984.14
2018-10-18T22:06:51.195Z,101978.06
2018-10-18T22:09:21.326Z,101977.67
2018-10-18T22:11:51.459Z,101980.44
2018-10-18T22:14:21.704Z,101977.87
2018-10-18T22:16:51.803Z,101970.03
2018-10-18T22:19:22.013Z,101968.80
2018-10-18T22:21:52.134Z,101972.26
2018-10-18T22:24:22.259Z,101964.34
2018-10-18T22:26:52.350Z,101973.27
2018-10-18T22:29:22.688Z,101977.23
2018-10-18T22:31:52.849Z,101976.05
2018-10-18T22:34:23.307Z,101974.88
2018-10-18T22:36:53.487Z,101977.49
2018-10-18T22:39:23.878Z,101970.34
2018-10-18T22:41:54.072Z,101964.76
2018-10-18T22:44:24.250Z,101968.39
2018-10-18T22:46:54.416Z,101970.30
2018-10-18T22:49:24.603Z,101964.64
2018-10-18T22:51:54.964Z,101965.30
2018-10-18T22:54:26.285Z,101961.55
2018-10-18T22:56:56.552Z,101960.62
2018-10-18T22:59:26.794Z,101962.80
2018-10-18T23:01:56.912Z,101958.08
2018-10-18T23:04:27.124Z,101962.81
2018-10-18T23:06:57.183Z,101958.08
2018-10-18T23:09:27.272Z,101961.13
2018-10-18T23:11:57.416Z,101962.50
2018-10-18T23:14:27.649Z,101957.20
2018-10-18T23:16:57.862Z,101966.11
2018-10-18T23:19:28.116Z,101959.49
2018-10-18T23:21:58.347Z,101959.95
2018-10-18T23:24:28.691Z,101959.06
2018-10-18T23:26:58.792Z,101958.48
2018-10-18T23:29:31.071Z,101958.65
2018-10-18T23:32:01.194Z,101962.66
2018-10-18T23:34:31.366Z,101952.70
2018-10-18T23:37:01.584Z,101958.86
2018-10-18T23:39:32.083Z,101955.66
2018-10-18T23:42:02.223Z,101955.78
2018-10-18T23:44:32.331Z,101955.13
2018-10-18T23:47:02.672Z,101955.19
2018-10-18T23:49:41.937Z,101959.59
2018-10-18T23:52:12.277Z,101951.88
2018-10-18T23:54:42.427Z,101954.69
2018-10-18T23:57:12.663Z,101952.23
2018-10-18T23:59:46.245Z,101950.88
